createdAt,value
2018-12-06T00:00:33.821Z,9.74
2018-12-06T00:01:33.825Z,9.72
2018-12-06T00:02:33.821Z,9.74
2018-12-06T00:03:33.700Z,9.72
2018-12-06T00:04:33.701Z,9.76
2018-12-06T00:05:33.580Z,9.73
2018-12-06T00:06:33.583Z,9.76
2018-12-06T00:07:33.579Z,9.74
2018-12-06T00:08:33.460Z,9.74
2018-12-06T00:09:33.458Z,9.77
2018-12-06T00:10:33.338Z,9.77
2018-12-06T00:11:33.339Z,9.77
2018-12-06T00:12:33.338Z,9.74
2018-12-06T00:13:33.221Z,9.76
2018-12-06T00:14:33.219Z,9.74
2018-12-06T00:15:33.181Z,9.73
2018-12-06T00:16:33.099Z,9.77
2018-12-06T00:17:33.099Z,9.77
2018-12-06T00:18:33.008Z,9.73
2018-12-06T00:19:32.976Z,9.76
2018-12-06T00:20:32.977Z,9.72
2018-12-06T00:21:32.856Z,9.80
2018-12-06T00:22:32.856Z,9.80
2018-12-06T00:23:32.737Z,9.72
2018-12-06T00:24:32.749Z,9.72
2018-12-06T00:25:32.736Z,9.74
2018-12-06T00:26:32.620Z,9.76
2018-12-06T00:27:32.616Z,9.82
2018-12-06T00:28:32.496Z,9.73
2018-12-06T00:29:32.495Z,9.80
2018-12-06T00:30:32.493Z,9.76
2018-12-06T00:31:32.462Z,9.81
2018-12-06T00:32:32.373Z,9.77
2018-12-06T00:33:32.253Z,9.84
2018-12-06T00:34:32.253Z,9.77
2018-12-06T00:35:32.252Z,9.76
2018-12-06T00:36:32.134Z,9.76
2018-12-06T00:37:32.134Z,9.77
2018-12-06T00:38:32.096Z,9.82
2018-12-06T00:39:32.012Z,9.76
2018-12-06T00:40:32.011Z,9.77
2018-12-06T00:41:31.892Z,9.77
2018-12-06T00:42:31.896Z,9.85
2018-12-06T00:43:31.892Z,9.81
2018-12-06T00:44:31.894Z,9.77
2018-12-06T00:45:31.891Z,9.85
2018-12-06T00:46:31.765Z,9.77
2018-12-06T00:47:31.766Z,9.74
2018-12-06T00:48:31.766Z,9.77
2018-12-06T00:49:31.529Z,9.81
2018-12-06T00:50:31.529Z,9.85
2018-12-06T00:51:31.411Z,9.77
2018-12-06T00:52:31.410Z,9.77
2018-12-06T00:53:31.409Z,9.77
2018-12-06T00:54:31.291Z,9.80
2018-12-06T00:55:31.291Z,9.73
2018-12-06T00:56:31.170Z,9.74
2018-12-06T00:57:31.169Z,9.77
2018-12-06T00:58:31.168Z,9.82
2018-12-06T00:59:31.055Z,9.77
2018-12-06T01:00:31.046Z,9.80
2018-12-06T01:01:30.932Z,9.80
2018-12-06T01:02:30.932Z,9.81
2018-12-06T01:03:30.928Z,9.77
2018-12-06T01:04:30.813Z,9.77
2018-12-06T01:05:30.811Z,9.76
2018-12-06T01:06:30.688Z,9.82
2018-12-06T01:07:30.686Z,9.84
2018-12-06T01:08:30.687Z,9.74
2018-12-06T01:09:30.566Z,9.76
2018-12-06T01:10:30.564Z,9.77
2018-12-06T01:11:30.531Z,9.77
2018-12-06T01:12:30.448Z,9.73
2018-12-06T01:13:30.445Z,9.77
2018-12-06T01:14:30.325Z,9.84
2018-12-06T01:15:30.325Z,9.77
2018-12-06T01:16:30.327Z,9.80
2018-12-06T01:17:30.209Z,9.80
2018-12-06T01:18:30.203Z,9.80
2018-12-06T01:19:30.086Z,9.77
2018-12-06T01:20:30.084Z,9.77
2018-12-06T01:21:30.087Z,9.73
2018-12-06T01:22:29.963Z,9.80
2018-12-06T01:23:29.967Z,9.77
2018-12-06T01:24:29.844Z,9.84
2018-12-06T01:25:29.846Z,9.81
2018-12-06T01:26:29.844Z,9.80
2018-12-06T01:27:29.721Z,9.77
2018-12-06T01:28:29.722Z,9.82
2018-12-06T01:29:29.602Z,9.85
2018-12-06T01:30:29.599Z,9.81
2018-12-06T01:31:29.599Z,9.80
2018-12-06T01:32:29.480Z,9.76
2018-12-06T01:33:29.485Z,9.85
2018-12-06T01:34:29.361Z,9.77
2018-12-06T01:35:29.360Z,9.76
2018-12-06T01:36:29.358Z,9.85
2018-12-06T01:37:29.239Z,9.82
2018-12-06T01:38:29.242Z,9.82
2018-12-06T01:39:29.202Z,9.80
2018-12-06T01:40:29.119Z,9.80
2018-12-06T01:41:29.120Z,9.82
2018-12-06T01:42:28.997Z,9.85
2018-12-06T01:43:28.999Z,9.73
2018-12-06T01:44:28.998Z,9.80
2018-12-06T01:45:28.876Z,9.77
2018-12-06T01:46:28.880Z,9.73
2018-12-06T01:47:28.761Z,9.82
2018-12-06T01:48:28.761Z,9.74
2018-12-06T01:49:28.758Z,9.80
2018-12-06T01:50:28.638Z,9.82
2018-12-06T01:51:28.648Z,9.80
2018-12-06T01:52:28.517Z,9.81
2018-12-06T01:53:28.514Z,9.84
2018-12-06T01:54:28.516Z,9.77
2018-12-06T01:55:28.393Z,9.84
2018-12-06T01:56:28.396Z,9.76
2018-12-06T01:57:28.274Z,9.82
2018-12-06T01:58:28.273Z,9.80
2018-12-06T01:59:28.273Z,9.80
2018-12-06T02:00:28.153Z,9.84
2018-12-06T02:01:28.152Z,9.82
2018-12-06T02:02:28.036Z,9.77
2018-12-06T02:03:28.033Z,9.82
2018-12-06T02:04:28.035Z,9.87
2018-12-06T02:05:27.917Z,9.76
2018-12-06T02:06:27.913Z,9.85
2018-12-06T02:07:27.793Z,9.90
2018-12-06T02:08:27.797Z,9.87
2018-12-06T02:09:27.794Z,9.90
2018-12-06T02:10:27.670Z,9.92
2018-12-06T02:11:27.673Z,9.90
2018-12-06T02:12:27.669Z,9.85
2018-12-06T02:13:27.549Z,9.92
2018-12-06T02:14:27.549Z,9.95
2018-12-06T02:15:27.432Z,9.87
2018-12-06T02:16:27.432Z,9.82
2018-12-06T02:17:27.431Z,9.87
2018-12-06T02:18:27.310Z,9.90
2018-12-06T02:19:27.313Z,9.87
2018-12-06T02:20:27.192Z,9.91
2018-12-06T02:21:27.190Z,9.85
2018-12-06T02:22:27.190Z,9.92
2018-12-06T02:23:27.067Z,9.97
2018-12-06T02:24:27.070Z,9.92
2018-12-06T02:25:26.953Z,9.97
2018-12-06T02:26:26.957Z,9.95
2018-12-06T02:27:26.954Z,9.94
2018-12-06T02:28:26.839Z,9.94
2018-12-06T02:29:26.829Z,9.94
2018-12-06T02:30:26.708Z,10.00
2018-12-06T02:31:26.707Z,9.97
2018-12-06T02:32:26.711Z,9.97
2018-12-06T02:33:26.669Z,10.02
2018-12-06T02:34:26.589Z,10.02
2018-12-06T02:35:26.468Z,10.00
2018-12-06T02:36:26.469Z,9.99
2018-12-06T02:37:26.473Z,9.97
2018-12-06T02:38:26.354Z,9.99
2018-12-06T02:39:26.347Z,10.00
2018-12-06T02:40:26.390Z,10.00
2018-12-06T02:41:26.228Z,9.99
2018-12-06T02:42:26.225Z,10.00
2018-12-06T02:43:26.106Z,10.06
2018-12-06T02:44:26.104Z,10.06
2018-12-06T02:45:26.105Z,9.95
2018-12-06T02:46:25.988Z,10.00
2018-12-06T02:47:25.985Z,10.03
2018-12-06T02:48:25.865Z,10.09
2018-12-06T02:49:25.863Z,10.06
2018-12-06T02:50:25.924Z,10.00
2018-12-06T02:51:25.743Z,10.05
2018-12-06T02:52:25.743Z,10.03
2018-12-06T02:53:25.746Z,10.03
2018-12-06T02:54:25.626Z,10.06
2018-12-06T02:55:25.623Z,10.03
2018-12-06T02:56:25.585Z,9.97
2018-12-06T02:57:25.502Z,10.05
2018-12-06T02:58:25.513Z,9.95
2018-12-06T02:59:25.388Z,9.99
2018-12-06T03:00:25.388Z,9.99
2018-12-06T03:01:25.261Z,9.94
2018-12-06T03:02:25.265Z,9.99
2018-12-06T03:03:25.267Z,9.94
2018-12-06T03:04:25.157Z,10.00
2018-12-06T03:05:25.139Z,10.03
2018-12-06T03:06:25.024Z,10.02
2018-12-06T03:07:25.026Z,10.00
2018-12-06T03:08:25.018Z,10.03
2018-12-06T03:09:24.901Z,9.95
2018-12-06T03:10:24.905Z,9.97
2018-12-06T03:11:24.779Z,9.99
2018-12-06T03:12:24.783Z,9.97
2018-12-06T03:13:24.781Z,9.91
2018-12-06T03:14:24.658Z,9.94
2018-12-06T03:15:24.658Z,9.99
2018-12-06T03:16:24.539Z,9.94
2018-12-06T03:17:24.537Z,9.99
2018-12-06T03:18:24.537Z,9.97
2018-12-06T03:19:24.416Z,9.95
2018-12-06T03:20:24.418Z,9.94
2018-12-06T03:21:24.378Z,9.95
2018-12-06T03:22:24.303Z,9.84
2018-12-06T03:23:24.298Z,9.87
2018-12-06T03:24:24.178Z,9.88
2018-12-06T03:25:24.178Z,9.88
2018-12-06T03:26:24.137Z,9.88
2018-12-06T03:27:24.059Z,9.84
2018-12-06T03:28:24.055Z,9.81
2018-12-06T03:29:23.939Z,9.88
2018-12-06T03:30:23.940Z,9.77
2018-12-06T03:31:23.946Z,9.76
2018-12-06T03:32:23.823Z,9.84
2018-12-06T03:33:23.821Z,9.85
2018-12-06T03:34:23.700Z,9.77
2018-12-06T03:35:23.697Z,9.77
2018-12-06T03:36:23.696Z,9.77
2018-12-06T03:37:23.570Z,9.84
2018-12-06T03:38:23.573Z,9.76
2018-12-06T03:39:23.461Z,9.74
2018-12-06T03:40:23.456Z,9.74
2018-12-06T03:41:23.462Z,9.67
2018-12-06T03:42:23.335Z,9.70
2018-12-06T03:43:23.334Z,9.63
2018-12-06T03:44:23.215Z,9.62
2018-12-06T03:45:23.215Z,9.69
2018-12-06T03:46:23.214Z,9.67
2018-12-06T03:47:23.099Z,9.66
2018-12-06T03:48:23.090Z,9.67
2018-12-06T03:49:23.052Z,9.69
2018-12-06T03:50:22.976Z,9.70
2018-12-06T03:51:22.981Z,9.64
2018-12-06T03:52:22.850Z,9.72
2018-12-06T03:53:22.851Z,9.69
2018-12-06T03:54:22.850Z,9.63
2018-12-06T03:55:22.848Z,9.66
2018-12-06T03:56:22.729Z,9.56
2018-12-06T03:57:22.607Z,9.63
2018-12-06T03:58:22.613Z,9.64
2018-12-06T03:59:22.612Z,9.62
2018-12-06T04:00:22.506Z,9.63
2018-12-06T04:01:22.492Z,9.58
2018-12-06T04:02:22.367Z,9.62
2018-12-06T04:03:22.365Z,9.63
2018-12-06T04:04:22.370Z,9.59
2018-12-06T04:05:22.249Z,9.70
2018-12-06T04:06:22.249Z,9.58
2018-12-06T04:07:22.125Z,9.59
2018-12-06T04:08:22.129Z,9.63
2018-12-06T04:09:22.129Z,9.67
2018-12-06T04:10:22.009Z,9.56
2018-12-06T04:11:22.009Z,9.67
2018-12-06T04:12:21.890Z,9.63
2018-12-06T04:13:21.892Z,9.63
2018-12-06T04:14:21.893Z,9.63
2018-12-06T04:15:21.766Z,9.62
2018-12-06T04:16:21.769Z,9.58
2018-12-06T04:17:21.648Z,9.66
2018-12-06T04:18:21.654Z,9.70
2018-12-06T04:19:21.651Z,9.59
2018-12-06T04:20:21.525Z,9.69
2018-12-06T04:21:21.524Z,9.59
2018-12-06T04:22:21.486Z,9.66
2018-12-06T04:23:21.402Z,9.58
2018-12-06T04:24:21.407Z,9.66
2018-12-06T04:25:21.283Z,9.59
2018-12-06T04:26:21.288Z,9.64
2018-12-06T04:27:21.294Z,9.64
2018-12-06T04:28:21.163Z,9.66
2018-12-06T04:29:21.186Z,9.63
2018-12-06T04:30:21.042Z,9.70
2018-12-06T04:31:21.043Z,9.63
2018-12-06T04:32:21.041Z,9.67
2018-12-06T04:33:20.922Z,9.63
2018-12-06T04:35:20.811Z,9.70
2018-12-06T04:36:20.799Z,9.64
2018-12-06T04:37:20.799Z,9.73
2018-12-06T04:38:20.681Z,9.66
2018-12-06T04:39:20.679Z,9.72
2018-12-06T04:40:20.560Z,9.73
2018-12-06T04:41:20.560Z,9.73
2018-12-06T04:42:20.563Z,9.77
2018-12-06T04:43:20.438Z,9.74
2018-12-06T04:44:20.439Z,9.76
2018-12-06T04:45:20.317Z,9.76
2018-12-06T04:46:20.318Z,9.76
2018-12-06T04:47:20.322Z,9.76
2018-12-06T04:49:20.202Z,9.76
2018-12-06T04:50:20.160Z,9.82
2018-12-06T04:51:20.077Z,9.81
2018-12-06T04:52:20.079Z,9.90
2018-12-06T04:53:19.959Z,9.85
2018-12-06T04:54:19.956Z,9.87
2018-12-06T04:55:19.957Z,9.87
2018-12-06T04:56:19.838Z,9.85
2018-12-06T04:57:19.837Z,9.84
2018-12-06T04:58:19.715Z,9.92
2018-12-06T04:59:19.720Z,9.88
2018-12-06T05:00:19.796Z,9.84
2018-12-06T05:01:19.598Z,9.94
2018-12-06T05:02:19.596Z,9.85
2018-12-06T05:03:19.473Z,9.95
2018-12-06T05:04:19.473Z,9.97
2018-12-06T05:05:19.482Z,9.92
2018-12-06T05:06:19.353Z,9.99
2018-12-06T05:07:19.357Z,9.95
2018-12-06T05:08:19.238Z,9.95
2018-12-06T05:09:19.234Z,10.02
2018-12-06T05:10:19.233Z,9.95
2018-12-06T05:11:19.113Z,10.02
2018-12-06T05:12:19.114Z,10.02
2018-12-06T05:13:19.111Z,10.05
2018-12-06T05:14:19.016Z,10.02
2018-12-06T05:15:18.994Z,10.03
2018-12-06T05:16:18.871Z,10.06
2018-12-06T05:17:18.872Z,10.02
2018-12-06T05:18:18.873Z,9.99
2018-12-06T05:19:18.753Z,10.03
2018-12-06T05:20:18.751Z,10.00
2018-12-06T05:21:18.632Z,10.02
2018-12-06T05:22:18.631Z,10.00
2018-12-06T05:23:18.637Z,10.00
2018-12-06T05:24:18.513Z,10.05
2018-12-06T05:25:18.512Z,10.00
2018-12-06T05:26:18.389Z,10.07
2018-12-06T05:27:18.392Z,10.15
2018-12-06T05:28:18.388Z,10.06
2018-12-06T05:29:18.270Z,10.06
2018-12-06T05:30:18.272Z,10.10
2018-12-06T05:31:18.152Z,10.07
2018-12-06T05:32:18.147Z,10.17
2018-12-06T05:33:18.147Z,10.09
2018-12-06T05:34:18.029Z,10.09
2018-12-06T05:35:18.029Z,10.13
2018-12-06T05:36:17.989Z,10.12
2018-12-06T05:37:17.953Z,10.06
2018-12-06T05:38:17.907Z,10.13
2018-12-06T05:39:17.787Z,10.07
2018-12-06T05:40:17.785Z,10.07
2018-12-06T05:41:17.785Z,10.13
2018-12-06T05:42:17.665Z,10.17
2018-12-06T05:43:17.665Z,10.12
2018-12-06T05:44:17.605Z,10.06
2018-12-06T05:45:17.545Z,10.09
2018-12-06T05:46:17.545Z,10.13
2018-12-06T05:47:17.426Z,10.09
2018-12-06T05:48:17.425Z,10.10
2018-12-06T05:49:17.306Z,10.07
2018-12-06T05:50:17.306Z,10.12
2018-12-06T05:51:17.309Z,10.10
2018-12-06T05:52:17.184Z,10.12
2018-12-06T05:53:17.186Z,10.07
2018-12-06T05:54:17.061Z,10.17
2018-12-06T05:55:17.061Z,10.10
2018-12-06T05:56:17.066Z,10.15
2018-12-06T05:57:16.940Z,10.17
2018-12-06T05:58:16.940Z,10.18
2018-12-06T05:59:16.940Z,10.09
2018-12-06T06:00:16.820Z,10.15
2018-12-06T06:01:16.819Z,10.15
2018-12-06T06:02:16.700Z,10.20
2018-12-06T06:03:16.704Z,10.09
2018-12-06T06:04:16.715Z,10.15
2018-12-06T06:05:16.703Z,10.13
2018-12-06T06:06:16.666Z,10.15
2018-12-06T06:07:16.463Z,10.13
2018-12-06T06:08:16.459Z,10.15
2018-12-06T06:09:16.462Z,10.17
2018-12-06T06:10:16.338Z,10.13
2018-12-06T06:11:16.337Z,10.13
2018-12-06T06:12:16.285Z,10.15
2018-12-06T06:13:16.217Z,10.09
2018-12-06T06:14:16.217Z,10.13
2018-12-06T06:15:16.096Z,10.06
2018-12-06T06:16:16.097Z,10.15
2018-12-06T06:17:16.097Z,10.07
2018-12-06T06:18:15.977Z,10.12
2018-12-06T06:19:15.974Z,10.03
2018-12-06T06:20:15.856Z,10.09
2018-12-06T06:21:15.857Z,10.07
2018-12-06T06:22:15.858Z,10.15
2018-12-06T06:23:15.738Z,10.09
2018-12-06T06:24:15.735Z,10.10
2018-12-06T06:25:15.623Z,10.10
2018-12-06T06:26:15.619Z,10.15
2018-12-06T06:27:15.612Z,10.06
2018-12-06T06:28:15.494Z,10.12
2018-12-06T06:29:15.493Z,10.20
2018-12-06T06:30:15.378Z,10.15
2018-12-06T06:31:15.372Z,10.09
2018-12-06T06:32:15.377Z,10.15
2018-12-06T06:33:15.253Z,10.10
2018-12-06T06:34:15.253Z,10.13
2018-12-06T06:35:15.132Z,10.13
2018-12-06T06:36:15.132Z,10.17
2018-12-06T06:37:15.133Z,10.17
2018-12-06T06:38:15.010Z,10.20
2018-12-06T06:39:15.011Z,10.20
2018-12-06T06:40:14.976Z,10.23
2018-12-06T06:41:14.890Z,10.24
2018-12-06T06:42:14.897Z,10.21
2018-12-06T06:43:14.769Z,10.15
2018-12-06T06:44:14.769Z,10.23
2018-12-06T06:45:14.768Z,10.28
2018-12-06T06:46:14.648Z,10.27
2018-12-06T06:47:14.656Z,10.23
2018-12-06T06:48:14.528Z,10.24
2018-12-06T06:49:14.528Z,10.25
2018-12-06T06:50:14.528Z,10.23
2018-12-06T06:51:14.411Z,10.25
2018-12-06T06:52:14.407Z,10.27
2018-12-06T06:53:14.292Z,10.27
2018-12-06T06:54:14.287Z,10.25
2018-12-06T06:55:14.289Z,10.24
2018-12-06T06:56:14.170Z,10.24
2018-12-06T06:57:14.168Z,10.30
2018-12-06T06:58:14.051Z,10.38
2018-12-06T06:59:14.056Z,10.34
2018-12-06T07:00:14.047Z,10.38
2018-12-06T07:01:13.928Z,10.38
2018-12-06T07:02:13.930Z,10.41
2018-12-06T07:03:14.024Z,10.39
2018-12-06T07:04:13.808Z,10.34
2018-12-06T07:05:13.898Z,10.33
2018-12-06T07:06:13.811Z,10.42
2018-12-06T07:07:13.684Z,10.33
2018-12-06T07:08:13.687Z,10.48
2018-12-06T07:09:13.565Z,10.48
2018-12-06T07:10:13.572Z,10.43
2018-12-06T07:11:13.446Z,10.51
2018-12-06T07:12:13.446Z,10.46
2018-12-06T07:13:13.443Z,10.49
2018-12-06T07:14:13.322Z,10.46
2018-12-06T07:15:13.325Z,10.49
2018-12-06T07:16:13.203Z,10.51
2018-12-06T07:17:13.205Z,10.51
2018-12-06T07:18:13.207Z,10.43
2018-12-06T07:19:13.083Z,10.43
2018-12-06T07:20:13.084Z,10.46
2018-12-06T07:21:13.082Z,10.55
2018-12-06T07:22:12.963Z,10.48
2018-12-06T07:23:12.962Z,10.46
2018-12-06T07:24:12.841Z,10.45
2018-12-06T07:25:12.845Z,10.51
2018-12-06T07:26:12.841Z,10.51
2018-12-06T07:27:12.724Z,10.53
2018-12-06T07:28:12.732Z,10.48
2018-12-06T07:29:12.600Z,10.55
2018-12-06T07:30:12.803Z,10.61
2018-12-06T07:31:12.598Z,10.67
2018-12-06T07:32:12.480Z,10.68
2018-12-06T07:33:12.479Z,10.61
2018-12-06T07:34:12.360Z,10.64
2018-12-06T07:35:12.358Z,10.61
2018-12-06T07:36:12.361Z,10.57
2018-12-06T07:37:12.240Z,10.64
2018-12-06T07:38:12.241Z,10.67
2018-12-06T07:39:12.240Z,10.62
2018-12-06T07:40:12.121Z,10.64
2018-12-06T07:41:12.122Z,10.61
2018-12-06T07:42:11.996Z,10.61
2018-12-06T07:43:11.998Z,10.68
2018-12-06T07:44:11.996Z,10.65
2018-12-06T07:45:11.880Z,10.76
2018-12-06T07:46:11.875Z,10.65
2018-12-06T07:47:11.756Z,10.68
2018-12-06T07:48:11.758Z,10.75
2018-12-06T07:49:11.757Z,10.71
2018-12-06T07:50:11.635Z,10.69
2018-12-06T07:51:11.635Z,10.76
2018-12-06T07:52:11.516Z,10.75
2018-12-06T07:53:11.515Z,10.67
2018-12-06T07:54:11.515Z,10.69
2018-12-06T07:55:11.400Z,10.80
2018-12-06T07:56:11.397Z,10.84
2018-12-06T07:57:11.397Z,10.82
2018-12-06T07:58:11.277Z,10.87
2018-12-06T07:59:11.278Z,10.84
2018-12-06T08:00:11.153Z,10.84
2018-12-06T08:01:11.155Z,10.83
2018-12-06T08:02:11.156Z,10.82
2018-12-06T08:03:11.042Z,10.92
2018-12-06T08:04:11.032Z,10.95
2018-12-06T08:05:10.918Z,10.94
2018-12-06T08:06:10.912Z,10.94
2018-12-06T08:07:10.911Z,10.89
2018-12-06T08:08:10.791Z,10.89
2018-12-06T08:09:10.791Z,10.95
2018-12-06T08:10:10.753Z,10.94
2018-12-06T08:11:10.671Z,10.89
2018-12-06T08:12:10.670Z,10.89
2018-12-06T08:13:10.548Z,11.02
2018-12-06T08:14:10.550Z,10.90
2018-12-06T08:15:10.548Z,10.98
2018-12-06T08:16:10.429Z,10.89
2018-12-06T08:17:10.428Z,10.94
2018-12-06T08:18:10.308Z,11.02
2018-12-06T08:19:10.309Z,10.95
2018-12-06T08:20:10.309Z,10.97
2018-12-06T08:21:10.189Z,10.98
2018-12-06T08:22:10.188Z,11.05
2018-12-06T08:23:10.068Z,11.05
2018-12-06T08:24:10.068Z,11.07
2018-12-06T08:25:10.068Z,11.10
2018-12-06T08:26:09.948Z,11.04
2018-12-06T08:27:09.947Z,11.05
2018-12-06T08:28:10.014Z,11.05
2018-12-06T08:29:09.827Z,11.12
2018-12-06T08:30:09.825Z,11.08
2018-12-06T08:31:09.705Z,11.08
2018-12-06T08:32:09.706Z,11.04
2018-12-06T08:33:09.708Z,11.10
2018-12-06T08:34:09.588Z,11.02
2018-12-06T08:35:09.584Z,11.10
2018-12-06T08:36:09.467Z,11.15
2018-12-06T08:37:09.464Z,11.19
2018-12-06T08:38:09.465Z,11.19
2018-12-06T08:39:09.347Z,11.18
2018-12-06T08:40:09.342Z,11.13
2018-12-06T08:41:09.307Z,11.10
2018-12-06T08:42:09.230Z,11.12
2018-12-06T08:43:09.227Z,11.15
2018-12-06T08:44:09.110Z,11.18
2018-12-06T08:45:09.105Z,11.19
2018-12-06T08:46:09.106Z,11.19
2018-12-06T08:47:08.985Z,11.20
2018-12-06T08:48:08.982Z,11.20
2018-12-06T08:49:08.872Z,11.15
2018-12-06T08:50:08.861Z,11.19
2018-12-06T08:51:08.860Z,11.20
2018-12-06T08:52:08.740Z,11.25
2018-12-06T08:53:08.741Z,11.22
2018-12-06T08:54:08.621Z,11.30
2018-12-06T08:55:08.618Z,11.23
2018-12-06T08:56:08.619Z,11.22
2018-12-06T08:57:08.503Z,11.25
2018-12-06T08:58:08.510Z,11.25
2018-12-06T08:59:08.498Z,11.23
2018-12-06T09:00:08.383Z,11.27
2018-12-06T09:01:08.625Z,11.27
2018-12-06T09:02:08.259Z,11.31
2018-12-06T09:03:08.258Z,11.27
2018-12-06T09:04:08.256Z,11.27
2018-12-06T09:05:08.137Z,11.27
2018-12-06T09:06:08.135Z,11.27
2018-12-06T09:07:08.018Z,11.22
2018-12-06T09:08:08.016Z,11.34
2018-12-06T09:09:08.022Z,11.34
2018-12-06T09:10:07.895Z,11.33
2018-12-06T09:11:07.897Z,11.34
2018-12-06T09:12:07.900Z,11.35
2018-12-06T09:13:07.775Z,11.43
2018-12-06T09:14:07.775Z,11.43
2018-12-06T09:15:07.663Z,11.43
2018-12-06T09:16:07.656Z,11.43
2018-12-06T09:17:07.657Z,11.43
2018-12-06T09:18:07.533Z,11.44
2018-12-06T09:19:07.533Z,11.45
2018-12-06T09:20:07.414Z,11.45
2018-12-06T09:21:07.413Z,11.45
2018-12-06T09:22:07.419Z,11.45
2018-12-06T09:23:07.292Z,11.49
2018-12-06T09:24:07.296Z,11.40
2018-12-06T09:25:07.297Z,11.45
2018-12-06T09:26:07.174Z,11.48
2018-12-06T09:27:07.172Z,11.53
2018-12-06T09:28:07.051Z,11.55
2018-12-06T09:29:07.170Z,11.52
2018-12-06T09:30:07.053Z,11.55
2018-12-06T09:31:06.931Z,11.71
2018-12-06T09:32:06.934Z,11.70
2018-12-06T09:33:06.810Z,11.67
2018-12-06T09:34:06.811Z,11.65
2018-12-06T09:35:06.810Z,11.65
2018-12-06T09:36:06.691Z,11.73
2018-12-06T09:37:06.693Z,11.71
2018-12-06T09:38:06.701Z,11.73
2018-12-06T09:39:06.568Z,11.76
2018-12-06T09:40:06.568Z,11.71
2018-12-06T09:41:06.452Z,11.78
2018-12-06T09:42:06.448Z,11.78
2018-12-06T09:43:06.448Z,11.83
2018-12-06T09:44:06.329Z,11.81
2018-12-06T09:45:06.328Z,11.86
2018-12-06T09:46:06.215Z,11.88
2018-12-06T09:47:06.210Z,11.88
2018-12-06T09:48:06.205Z,11.85
2018-12-06T09:49:06.089Z,12.00
2018-12-06T09:50:06.088Z,12.02
2018-12-06T09:51:06.095Z,12.00
2018-12-06T09:52:05.967Z,12.02
2018-12-06T09:53:05.969Z,11.99
2018-12-06T09:54:05.846Z,12.05
2018-12-06T09:55:05.846Z,12.02
2018-12-06T09:56:05.846Z,12.05
2018-12-06T09:57:05.725Z,12.08
2018-12-06T09:58:05.728Z,12.17
2018-12-06T09:59:05.687Z,12.14
2018-12-06T10:00:05.604Z,12.14
2018-12-06T10:01:05.607Z,12.18
2018-12-06T10:02:05.484Z,12.29
2018-12-06T10:03:05.489Z,12.21
2018-12-06T10:04:05.484Z,12.21
2018-12-06T10:05:05.366Z,12.26
2018-12-06T10:06:05.364Z,12.28
2018-12-06T10:07:05.245Z,12.17
2018-12-06T10:08:05.249Z,12.26
2018-12-06T10:09:05.243Z,12.32
2018-12-06T10:10:05.123Z,12.32
2018-12-06T10:11:05.138Z,12.33
2018-12-06T10:12:05.123Z,12.29
2018-12-06T10:13:05.003Z,12.39
2018-12-06T10:14:05.003Z,12.32
2018-12-06T10:15:04.881Z,12.39
2018-12-06T10:16:04.884Z,12.40
2018-12-06T10:17:04.883Z,12.43
2018-12-06T10:18:04.761Z,12.39
2018-12-06T10:19:04.762Z,12.37
2018-12-06T10:20:04.726Z,12.40
2018-12-06T10:21:04.642Z,12.39
2018-12-06T10:22:04.641Z,12.37
2018-12-06T10:23:04.520Z,12.40
2018-12-06T10:24:04.520Z,12.39
2018-12-06T10:25:04.524Z,12.43
2018-12-06T10:26:04.402Z,12.48
2018-12-06T10:27:04.404Z,12.47
2018-12-06T10:28:04.279Z,12.37
2018-12-06T10:29:04.281Z,12.45
2018-12-06T10:30:04.277Z,12.47
2018-12-06T10:31:04.160Z,12.47
2018-12-06T10:32:04.157Z,12.44
2018-12-06T10:33:04.163Z,12.48
2018-12-06T10:34:04.038Z,12.47
2018-12-06T10:35:04.037Z,12.47
2018-12-06T10:36:04.042Z,12.47
2018-12-06T10:37:03.922Z,12.53
2018-12-06T10:38:03.921Z,12.47
2018-12-06T10:39:03.800Z,12.54
2018-12-06T10:40:03.806Z,12.50
2018-12-06T10:41:03.758Z,12.50
2018-12-06T10:42:03.674Z,12.54
2018-12-06T10:43:03.676Z,12.48
2018-12-06T10:44:03.554Z,12.61
2018-12-06T10:45:03.566Z,12.66
2018-12-06T10:46:03.556Z,12.58
2018-12-06T10:47:03.437Z,12.55
2018-12-06T10:48:03.434Z,12.58
2018-12-06T10:49:03.398Z,12.63
2018-12-06T10:50:03.315Z,12.65
2018-12-06T10:51:03.314Z,12.62
2018-12-06T10:52:03.192Z,12.51
2018-12-06T10:53:03.195Z,12.55
2018-12-06T10:54:03.197Z,12.66
2018-12-06T10:55:03.071Z,12.65
2018-12-06T10:56:03.073Z,12.61
2018-12-06T10:57:02.964Z,12.62
2018-12-06T10:58:03.072Z,12.61
2018-12-06T10:59:02.952Z,12.61
2018-12-06T11:00:02.831Z,12.63
2018-12-06T11:01:02.835Z,12.66
2018-12-06T11:02:02.830Z,12.65
2018-12-06T11:03:02.714Z,12.68
2018-12-06T11:04:02.712Z,12.72
2018-12-06T11:05:02.597Z,12.70
2018-12-06T11:06:02.590Z,12.78
2018-12-06T11:07:02.596Z,12.75
2018-12-06T11:08:02.470Z,12.73
2018-12-06T11:09:02.471Z,12.78
2018-12-06T11:10:02.351Z,12.73
2018-12-06T11:11:02.348Z,12.84
2018-12-06T11:12:02.349Z,12.80
2018-12-06T11:13:02.228Z,12.81
2018-12-06T11:14:02.230Z,12.84
2018-12-06T11:15:02.229Z,12.83
2018-12-06T11:16:02.112Z,12.83
2018-12-06T11:17:02.115Z,12.84
2018-12-06T11:18:01.988Z,12.88
2018-12-06T11:19:01.987Z,12.91
2018-12-06T11:20:01.988Z,12.84
2018-12-06T11:21:01.874Z,12.90
2018-12-06T11:22:01.867Z,12.93
2018-12-06T11:23:01.867Z,12.90
2018-12-06T11:24:01.755Z,12.94
2018-12-06T11:25:01.746Z,13.01
2018-12-06T11:26:01.629Z,12.94
2018-12-06T11:27:01.628Z,12.93
2018-12-06T11:28:01.630Z,12.91
2018-12-06T11:29:01.509Z,13.02
2018-12-06T11:30:01.507Z,13.03
2018-12-06T11:31:01.503Z,12.99
2018-12-06T11:32:01.384Z,13.02
2018-12-06T11:33:01.387Z,13.02
2018-12-06T11:34:01.265Z,12.94
2018-12-06T11:35:01.264Z,13.02
2018-12-06T11:36:01.266Z,13.03
2018-12-06T11:37:01.143Z,12.99
2018-12-06T11:38:01.146Z,13.03
2018-12-06T11:39:01.106Z,12.98
2018-12-06T11:40:01.030Z,13.08
2018-12-06T11:41:01.024Z,13.08
2018-12-06T11:42:00.905Z,13.02
2018-12-06T11:43:00.901Z,12.94
2018-12-06T11:44:00.902Z,13.05
2018-12-06T11:45:00.783Z,13.03
2018-12-06T11:46:00.781Z,12.95
2018-12-06T11:47:00.662Z,13.02
2018-12-06T11:48:00.662Z,13.02
2018-12-06T11:49:00.663Z,13.02
2018-12-06T11:50:00.544Z,13.06
2018-12-06T11:51:00.539Z,13.02
2018-12-06T11:52:00.544Z,13.03
2018-12-06T11:53:00.422Z,13.02
2018-12-06T11:54:00.426Z,13.02
2018-12-06T11:55:00.300Z,12.98
2018-12-06T11:56:00.300Z,12.88
2018-12-06T11:57:00.298Z,12.88
2018-12-06T11:58:00.179Z,12.90
2018-12-06T11:59:00.178Z,12.98
2018-12-06T12:00:00.187Z,12.98
2018-12-06T12:01:00.072Z,12.93
2018-12-06T12:02:00.076Z,13.02
2018-12-06T12:02:59.956Z,13.03
2018-12-06T12:03:59.937Z,13.06
2018-12-06T12:04:59.939Z,13.12
2018-12-06T12:05:59.823Z,13.12
2018-12-06T12:06:59.817Z,13.13
2018-12-06T12:07:59.779Z,13.12
2018-12-06T12:08:59.696Z,13.19
2018-12-06T12:09:59.696Z,13.11
2018-12-06T12:10:59.577Z,13.19
2018-12-06T12:11:59.590Z,13.19
2018-12-06T12:12:59.579Z,13.17
2018-12-06T12:13:59.466Z,13.20
2018-12-06T12:14:59.458Z,13.20
2018-12-06T12:15:59.335Z,13.24
2018-12-06T12:16:59.346Z,13.19
2018-12-06T12:17:59.336Z,13.13
2018-12-06T12:18:59.219Z,13.17
2018-12-06T12:19:59.213Z,13.20
2018-12-06T12:20:59.216Z,13.13
2018-12-06T12:21:59.094Z,13.12
2018-12-06T12:22:59.096Z,13.05
2018-12-06T12:23:58.977Z,13.13
2018-12-06T12:24:58.975Z,13.11
2018-12-06T12:25:58.981Z,13.02
2018-12-06T12:26:58.856Z,13.16
2018-12-06T12:27:58.856Z,13.06
2018-12-06T12:28:58.850Z,13.11
2018-12-06T12:29:58.734Z,13.06
2018-12-06T12:30:58.808Z,13.08
2018-12-06T12:31:58.612Z,13.12
2018-12-06T12:32:58.610Z,13.08
2018-12-06T12:33:58.611Z,13.16
2018-12-06T12:34:58.491Z,13.13
2018-12-06T12:35:58.490Z,13.16
2018-12-06T12:36:58.491Z,13.13
2018-12-06T12:37:58.372Z,13.17
2018-12-06T12:38:58.371Z,13.20
2018-12-06T12:39:58.254Z,13.28
2018-12-06T12:40:58.250Z,13.26
2018-12-06T12:41:58.253Z,13.21
2018-12-06T12:42:58.131Z,13.21
2018-12-06T12:43:58.130Z,13.26
2018-12-06T12:44:58.094Z,13.28
2018-12-06T12:45:58.011Z,13.23
2018-12-06T12:46:58.011Z,13.20
2018-12-06T12:47:57.889Z,13.26
2018-12-06T12:48:57.891Z,13.28
2018-12-06T12:49:57.888Z,13.28
2018-12-06T12:50:57.768Z,13.27
2018-12-06T12:51:57.769Z,13.31
2018-12-06T12:52:57.731Z,13.40
2018-12-06T12:53:57.650Z,13.43
2018-12-06T12:54:57.649Z,13.36
2018-12-06T12:55:57.528Z,13.37
2018-12-06T12:56:57.525Z,13.40
2018-12-06T12:57:57.525Z,13.40
2018-12-06T12:58:57.405Z,13.47
2018-12-06T12:59:57.408Z,13.45
2018-12-06T13:00:57.283Z,13.43
2018-12-06T13:01:57.287Z,13.43
2018-12-06T13:02:57.284Z,13.42